Baltimore/Washington International Thurgood Marshal Airport
KBWI : now visible

Airfield :











YOU CAN JOIN US ON...

 
LOGIN :

Register | Disclaimer

   EN    FR    IT 

 









Legend :    VFR   Marginal VFR   IFR   Intensive IFR   Very Intensive IFR
Visi :
Ceiling :
>= 8 km
>= 3000ft
5 to 8 km
1000 to 3000 ft
1500m to 5 km
500 to 1000 ft
800 to 1500m
200 to 500 ft
< 800m
< 200 ft
Symbols :   Thunderstorms  Fog  Heavy snow  Heavy precipitations  Wind > 20 kt






- Airport Elevation : 146 ft
- IATA code : BWI


KBWI - Baltimore/Washington International Thurgood Marshal

CURRENT METAR :
  • 260454Z 07003KT 10SM FEW007 FEW055 OVC140 17/15 A2961 RMK AO2 RAE27 SLP025 P0009 T01670150 402670128

EXPIRED METARs :
  • 260443Z COR 10005KT 10SM FEW008 SCT055 SCT070 OVC140 17/16 A2962 RMK AO2 RAE27 P0009 T01670156
  • 260354Z 09009KT 5SM RA BR FEW030 BKN080 OVC100 17/16 A2963 RMK AO2 PRESFR SLP033 P0027 T01670156
  • 260254Z 32005KT 4SM RA BR FEW035 BKN070 OVC095 17/16 A2968 RMK AO2 PRESFR SLP051 P0038 60153 T01670156 58012
  • 260243Z 32006KT 4SM RA BR FEW008 BKN050 OVC090 17/16 A2970 RMK AO2 PRESFR P0034 T01720156
  • 260216Z 32009KT 2 1/2SM +RA BR SCT008 BKN036 OVC042 17/16 A2972 RMK AO2 P0014 T01720161

TAF KBWI
Valid from the 26 at 03:00 until the 27 at 06:00 UTC


260300Z 2603/2706 32009KT 2SM +SHRA BR SCT008 BKN035 OVC040
TEMPO 2603/2604 4SM -SHRA BR BKN008
FM260400 VRB03KT 5SM BR VCSH BKN008 BKN015 OVC025
FM260500 00000KT 6SM BR SCT004 BKN008 OVC015
TEMPO 2609/2611 SCT008
FM261100 32005KT 6SM -SHRA SCT008 BKN015
FM261400 31010G25KT P6SM VCSH SCT010 BKN015
FM261800 30020G35KT 6SM -SHRA SCT020 BKN025
KZDC FIR / North America



MET'MAP, your aeronautical weather chart ! - Copyright ORBIFLY December 2007 - Disclaimer

ORBIFLY MET'MAP TEAM :

Programming & Development : Alexandra Zaïnal
Concept & original design : Baudouin d'Aumeries
Assistance for programming : Marc-Olivier Méhu
Technical & hardware support : Manuel Goepfert

Contact : metmap@orbifly.com




SOURCES & CREDITS :

   NOAA       Earth
Advisory